Time;durP1;ratioP1;P1;durP2;ratioP2;P2;SDS_P1;SDS_P2;PMS_P1;PMS_P2;Temp;Humidity;BMP_temperature;BMP_pressure;BME280_temperature;BME280_humidity;BME280_pressure;Samples;Min_cycle;Max_cycle;Signal;HPM_P1;HPM_P2
2023/04/15 00:01:18;;;;;;;12.98;7.60;;;;;;;3.77;100.00;101009.09;10198794;28;21873;-87
2023/04/15 00:06:21;;;;;;;14.73;6.53;;;;;;;3.06;100.00;100886.22;10179307;29;20087;-87
2023/04/15 00:11:23;;;;;;;16.27;6.38;;;;;;;2.86;100.00;100838.06;10207456;29;20459;-87
2023/04/15 00:16:24;;;;;;;15.82;7.43;;;;;;;3.17;100.00;100905.53;10214025;29;20403;-87
2023/04/15 00:21:27;;;;;;;20.33;9.27;;;;;;;3.59;100.00;101000.69;10212821;29;20034;-87
2023/04/15 00:26:28;;;;;;;14.73;7.88;;;;;;;3.37;100.00;100954.56;10211284;29;20035;-87
2023/04/15 00:31:29;;;;;;;13.40;7.57;;;;;;;3.21;100.00;100944.03;10210960;29;20032;-87
2023/04/15 00:36:30;;;;;;;15.60;7.55;;;;;;;3.09;100.00;100900.25;10203115;29;20043;-87
2023/04/15 00:41:32;;;;;;;15.93;9.27;;;;;;;2.91;100.00;100884.50;10209398;29;20475;-87
2023/04/15 00:46:35;;;;;;;13.30;8.20;;;;;;;2.31;100.00;100796.44;10211090;28;20137;-87
2023/04/15 00:51:35;;;;;;;16.90;8.43;;;;;;;3.44;100.00;100998.97;10195104;29;20062;-87
2023/04/15 00:56:37;;;;;;;16.05;9.43;;;;;;;2.61;100.00;100864.94;10169047;29;20055;-87
2023/04/15 01:01:38;;;;;;;13.27;7.95;;;;;;;2.95;100.00;100915.69;10220786;29;20035;-87
2023/04/15 01:06:38;;;;;;;16.05;8.85;;;;;;;2.61;100.00;100841.31;10203452;29;20051;-87
2023/04/15 01:11:39;;;;;;;18.67;9.40;;;;;;;3.32;100.00;100989.69;10202345;28;20424;-87
2023/04/15 01:16:40;;;;;;;17.65;8.82;;;;;;;2.18;100.00;100855.09;10196329;28;20036;-87
2023/04/15 01:21:40;;;;;;;19.42;8.98;;;;;;;2.31;100.00;100886.09;10195487;28;20027;-87
2023/04/15 01:26:41;;;;;;;13.10;8.43;;;;;;;2.70;100.00;100948.00;10177509;28;20027;-87
2023/04/15 01:31:49;;;;;;;16.70;8.68;;;;;;;2.03;100.00;100878.81;10201534;28;20035;-88
2023/04/15 01:36:50;;;;;;;18.10;8.13;;;;;;;2.65;100.00;100957.78;10197911;28;20099;-87
2023/04/15 01:41:51;;;;;;;17.85;10.02;;;;;;;2.53;100.00;100962.97;10210555;29;20028;-87
2023/04/15 01:46:52;;;;;;;20.63;10.93;;;;;;;1.48;100.00;100777.34;10224616;28;20035;-87
2023/04/15 01:51:53;;;;;;;21.30;10.75;;;;;;;1.95;100.00;100868.09;10196923;29;21023;-87
2023/04/15 01:56:53;;;;;;;21.05;11.38;;;;;;;2.12;100.00;100895.78;10213159;28;20055;-91
2023/04/15 02:01:55;;;;;;;18.33;11.00;;;;;;;2.37;100.00;100947.78;10207589;29;20031;-92
2023/04/15 02:06:55;;;;;;;19.58;10.75;;;;;;;3.11;100.00;101074.16;10208553;29;20029;-92
2023/04/15 02:11:56;;;;;;;24.42;11.20;;;;;;;2.13;100.00;100940.91;10167791;29;20024;-87
2023/04/15 02:16:57;;;;;;;21.20;11.38;;;;;;;2.33;100.00;100962.81;10150472;29;20052;-87
2023/04/15 02:21:57;;;;;;;20.73;11.65;;;;;;;2.09;100.00;100973.09;10152806;29;20426;-87
2023/04/15 02:26:58;;;;;;;20.58;12.35;;;;;;;1.70;100.00;100884.81;10148307;29;20064;-87
2023/04/15 02:31:59;;;;;;;27.15;15.18;;;;;;;2.01;100.00;100927.88;10153547;29;20500;-87
2023/04/15 02:37:00;;;;;;;32.63;16.30;;;;;;;2.01;100.00;100889.03;10168254;29;20051;-87
2023/04/15 02:42:01;;;;;;;35.38;17.02;;;;;;;2.76;100.00;101020.59;10177605;29;20031;-87
2023/04/15 02:47:03;;;;;;;34.63;19.02;;;;;;;2.76;100.00;100998.00;10182043;28;20047;-87
2023/04/15 02:52:04;;;;;;;34.58;19.70;;;;;;;3.55;100.00;101124.63;10208708;28;20032;-87
2023/04/15 02:57:05;;;;;;;38.90;21.45;;;;;;;3.58;100.00;101102.47;10178563;29;20040;-87
2023/04/15 03:02:07;;;;;;;43.40;20.77;;;;;;;2.58;100.00;100931.44;10194583;29;20034;-87
2023/04/15 03:07:07;;;;;;;41.67;21.63;;;;;;;3.25;100.00;101053.31;10194823;29;20115;-87
2023/04/15 03:12:08;;;;;;;42.42;24.05;;;;;;;2.42;100.00;100950.75;10193391;29;20453;-86
2023/04/15 03:17:09;;;;;;;47.08;23.92;;;;;;;2.69;100.00;100991.69;10209262;29;20066;-87
2023/04/15 03:22:09;;;;;;;44.08;21.85;;;;;;;3.63;100.00;101127.19;10193694;29;20365;-87
2023/04/15 03:27:10;;;;;;;52.28;23.58;;;;;;;2.75;100.00;100999.03;10209030;29;20036;-87
2023/04/15 03:32:11;;;;;;;53.75;23.00;;;;;;;2.69;100.00;100995.25;10207109;29;20027;-87
2023/04/15 03:37:12;;;;;;;45.97;20.80;;;;;;;2.41;100.00;100959.94;10184473;29;20055;-87
2023/04/15 03:42:12;;;;;;;51.45;23.00;;;;;;;3.33;100.00;101111.13;10170276;29;20107;-87
2023/04/15 03:47:13;;;;;;;47.58;23.75;;;;;;;2.61;100.00;101031.59;10221381;28;20043;-87
2023/04/15 03:52:14;;;;;;;49.40;24.35;;;;;;;2.19;100.00;100968.16;10207337;29;20382;-86
2023/04/15 03:57:15;;;;;;;49.08;23.38;;;;;;;2.59;100.00;101033.66;10192005;29;20043;-87
2023/04/15 04:02:16;;;;;;;46.33;22.08;;;;;;;1.94;100.00;100964.16;10209482;29;20030;-87
2023/04/15 04:07:17;;;;;;;48.10;23.10;;;;;;;0.80;100.00;100796.75;10154544;29;20052;-87
2023/04/15 04:12:17;;;;;;;51.13;24.60;;;;;;;1.99;100.00;100995.13;10191817;29;20034;-87
2023/04/15 04:17:20;;;;;;;48.75;23.73;;;;;;;1.78;100.00;100966.13;10149818;29;20055;-87
2023/04/15 04:22:23;;;;;;;55.70;24.52;;;;;;;2.09;100.00;101023.81;10203808;29;20028;-87
2023/04/15 04:27:25;;;;;;;57.65;26.08;;;;;;;2.91;100.00;101139.28;10229162;29;20578;-88
2023/04/15 04:32:25;;;;;;;52.17;25.50;;;;;;;2.90;100.00;101127.59;10230532;29;20031;-87
2023/04/15 04:37:26;;;;;;;54.50;25.88;;;;;;;2.24;100.00;101023.78;10245776;28;20114;-87
2023/04/15 04:42:27;;;;;;;57.92;25.63;;;;;;;1.71;100.00;100919.06;10213101;28;20031;-87
2023/04/15 04:47:29;;;;;;;50.05;23.58;;;;;;;2.12;100.00;101037.84;10219209;28;20062;-87
2023/04/15 04:52:29;;;;;;;51.33;24.08;;;;;;;1.78;100.00;100954.44;10230084;29;20035;-92
2023/04/15 04:57:30;;;;;;;52.40;24.98;;;;;;;1.66;100.00;100926.97;10222174;29;20066;-91
2023/04/15 05:02:31;;;;;;;44.13;23.15;;;;;;;1.97;100.00;100974.66;10213746;29;20086;-91
2023/04/15 05:07:31;;;;;;;45.25;23.02;;;;;;;2.49;100.00;101027.72;10191330;29;20024;-91
2023/04/15 05:12:32;;;;;;;49.90;23.38;;;;;;;2.42;100.00;101010.53;10199047;29;20019;-92
2023/04/15 05:17:34;;;;;;;48.42;22.55;;;;;;;3.05;100.00;101123.94;10224157;29;20432;-92
2023/04/15 05:22:34;;;;;;;56.80;26.85;;;;;;;2.88;100.00;101033.66;10215737;29;20028;-90
2023/04/15 05:27:35;;;;;;;56.40;26.85;;;;;;;3.47;100.00;101067.63;10230780;29;20027;-91
2023/04/15 05:32:36;;;;;;;57.47;26.30;;;;;;;3.64;100.00;101039.03;10208388;29;20035;-91
2023/04/15 05:37:36;;;;;;;51.17;24.33;;;;;;;3.55;100.00;100983.06;10198047;29;20039;-91
2023/04/15 05:42:37;;;;;;;57.28;24.75;;;;;;;4.32;100.00;101065.34;10196612;29;20028;-90
2023/04/15 05:47:38;;;;;;;49.80;22.90;;;;;;;4.34;100.00;101041.44;10159581;29;20127;-91
2023/04/15 05:52:39;;;;;;;46.88;21.58;;;;;;;4.83;100.00;101111.09;10159807;29;20349;-91
2023/04/15 05:57:39;;;;;;;47.95;21.13;;;;;;;5.14;100.00;101156.81;10147990;29;20055;-90
2023/04/15 06:02:40;;;;;;;41.13;18.33;;;;;;;5.20;100.00;101136.03;10188620;29;20043;-90
2023/04/15 06:07:42;;;;;;;32.50;16.67;;;;;;;5.38;100.00;101147.13;10144286;29;20154;-91
2023/04/15 06:12:43;;;;;;;29.90;15.63;;;;;;;5.29;100.00;101144.84;10200897;29;20039;-91
2023/04/15 06:17:43;;;;;;;18.17;11.43;;;;;;;5.15;100.00;101075.81;10146356;29;20036;-92
2023/04/15 06:22:44;;;;;;;17.60;10.68;;;;;;;6.00;100.00;101204.97;10143845;29;20043;-89
2023/04/15 06:27:44;;;;;;;18.05;10.82;;;;;;;5.93;100.00;101201.38;10155488;29;20131;-90
2023/04/15 06:32:46;;;;;;;20.90;11.98;;;;;;;5.76;100.00;101127.25;10148401;29;20362;-89
2023/04/15 06:37:46;;;;;;;18.30;10.18;;;;;;;5.86;100.00;101144.03;10131666;29;20051;-89
2023/04/15 06:42:47;;;;;;;16.50;8.75;;;;;;;5.61;100.00;101091.19;10201652;28;20467;-91
2023/04/15 06:47:47;;;;;;;14.43;9.43;;;;;;;6.15;100.00;101158.22;10169268;28;20130;-90
2023/04/15 06:52:48;;;;;;;17.10;8.90;;;;;;;5.94;100.00;101095.66;10170354;28;20111;-89
2023/04/15 06:57:57;;;;;;;13.18;8.48;;;;;;;6.63;100.00;101176.88;10188626;28;20047;-88
2023/04/15 07:03:03;;;;;;;14.57;8.25;;;;;;;6.88;100.00;101208.91;10161545;28;20036;-90
2023/04/15 07:08:05;;;;;;;14.30;7.75;;;;;;;6.78;100.00;101110.03;10169878;28;20023;-90
2023/04/15 07:13:07;;;;;;;13.70;7.95;;;;;;;7.16;100.00;101122.78;10185331;28;20067;-90
2023/04/15 07:18:08;;;;;;;14.18;8.20;;;;;;;7.57;100.00;101203.50;10183144;28;20115;-93
2023/04/15 07:23:09;;;;;;;14.13;7.35;;;;;;;7.34;100.00;101089.94;10200698;28;20110;-92
2023/04/15 07:28:09;;;;;;;13.70;7.38;;;;;;;7.48;100.00;101132.56;10185117;28;20063;-90
2023/04/15 07:33:10;;;;;;;15.10;6.57;;;;;;;8.22;100.00;101277.84;10200338;28;20450;-91
2023/04/15 07:38:13;;;;;;;11.20;5.40;;;;;;;7.21;100.00;101103.75;10167122;28;20039;-92
2023/04/15 07:43:14;;;;;;;9.13;4.78;;;;;;;7.14;100.00;101116.69;10190681;28;20032;-92
2023/04/15 07:48:14;;;;;;;7.68;4.63;;;;;;;7.55;100.00;101112.47;10168565;29;20477;-93
2023/04/15 07:53:15;;;;;;;7.78;4.70;;;;;;;7.15;100.00;101030.72;10154741;29;20126;-93
2023/04/15 07:58:16;;;;;;;7.20;4.55;;;;;;;8.21;100.00;101231.47;10177292;28;20122;-92
2023/04/15 08:03:16;;;;;;;6.75;4.65;;;;;;;7.28;100.00;101112.75;10173852;28;20028;-94
2023/04/15 08:08:17;;;;;;;7.15;4.90;;;;;;;7.05;100.00;101114.25;10185971;28;20028;-92
2023/04/15 08:13:17;;;;;;;7.65;4.75;;;;;;;7.02;100.00;101098.25;10160466;29;20036;-92
2023/04/15 08:18:18;;;;;;;7.53;4.50;;;;;;;7.10;100.00;101104.50;10167092;29;20165;-91
2023/04/15 08:23:19;;;;;;;5.50;3.42;;;;;;;7.55;100.00;101123.44;10182932;28;20127;-91
2023/04/15 08:28:20;;;;;;;5.97;3.50;;;;;;;8.19;100.00;101206.16;10151974;29;20059;-91
2023/04/15 08:33:20;;;;;;;5.10;3.17;;;;;;;7.47;100.00;101095.25;10157915;29;20063;-92
2023/04/15 08:38:21;;;;;;;6.97;3.22;;;;;;;7.58;100.00;101136.66;10176004;29;20143;-93
2023/04/15 08:43:25;;;;;;;7.25;3.58;;;;;;;6.90;100.00;101004.25;10180956;29;20054;-93
2023/04/15 08:48:27;;;;;;;4.40;2.80;;;;;;;7.16;100.00;101032.41;10182195;28;20047;-91
2023/04/15 08:53:28;;;;;;;10.45;2.63;;;;;;;9.14;100.00;101300.75;10188247;29;20472;-89
2023/04/15 08:58:29;;;;;;;6.03;2.80;;;;;;;8.69;100.00;101252.59;10193144;29;20023;-90
2023/04/15 09:03:30;;;;;;;3.97;2.20;;;;;;;8.96;100.00;101313.44;10203216;29;20487;-89
2023/04/15 09:08:30;;;;;;;7.45;3.00;;;;;;;8.23;100.00;101194.50;10202811;29;20035;-88
2023/04/15 09:13:31;;;;;;;3.78;2.35;;;;;;;8.67;100.00;101296.72;10234931;28;20127;-88
2023/04/15 09:18:32;;;;;;;6.68;2.85;;;;;;;8.01;100.00;101183.16;10203098;28;20347;-87
2023/04/15 09:23:33;;;;;;;6.65;3.10;;;;;;;8.01;100.00;101185.06;10204039;28;20031;-89
2023/04/15 09:28:40;;;;;;;7.70;3.85;;;;;;;8.43;100.00;101242.81;10205279;28;20086;-91
2023/04/15 09:33:52;;;;;;;;;;;;;;;9.19;100.00;101320.09;10193614;28;20522;-90
2023/04/15 09:38:55;;;;;;;7.05;2.25;;;;;;;8.38;100.00;101209.72;10208757;29;19946;-93
2023/04/15 09:43:55;;;;;;;4.85;2.45;;;;;;;8.18;100.00;101215.44;10182464;28;20524;-89
2023/04/15 09:49:11;;;;;;;3.28;2.17;;;;;;;7.84;100.00;101133.59;10182604;29;20048;-89
2023/04/15 09:54:12;;;;;;;5.23;2.33;;;;;;;8.35;100.00;101201.94;10183511;29;20043;-91
2023/04/15 09:59:12;;;;;;;9.15;2.70;;;;;;;8.02;100.00;101162.06;10180532;29;20027;-91
2023/04/15 10:04:13;;;;;;;6.07;2.83;;;;;;;7.86;100.00;101152.56;10140013;29;20158;-91
2023/04/15 10:09:14;;;;;;;11.60;2.65;;;;;;;7.55;100.00;101120.69;10140083;29;20175;-91
2023/04/15 10:14:15;;;;;;;5.30;2.67;;;;;;;7.78;100.00;101188.50;10195698;29;20044;-88
2023/04/15 10:19:15;;;;;;;5.45;2.38;;;;;;;8.41;100.00;101237.56;10205732;28;20572;-91
2023/04/15 10:24:16;;;;;;;7.03;2.90;;;;;;;9.28;100.00;101376.38;10158455;29;20143;-90
2023/04/15 10:29:17;;;;;;;8.88;2.20;;;;;;;7.86;100.00;101156.16;10177337;29;20392;-92
2023/04/15 10:34:17;;;;;;;4.00;2.75;;;;;;;8.56;100.00;101250.88;10158204;29;20043;-91
2023/04/15 10:39:33;;;;;;;4.50;2.15;;;;;;;9.32;100.00;101363.84;10185099;29;20032;-88
2023/04/15 10:44:36;;;;;;;8.88;2.47;;;;;;;8.93;100.00;101337.78;10202388;29;20036;-88
2023/04/15 10:49:57;;;;;;;5.57;2.00;;;;;;;8.27;100.00;101228.63;10169497;29;20075;-89
2023/04/15 10:55:03;;;;;;;6.70;2.17;;;;;;;8.77;100.00;101331.88;10169270;29;20046;-88
2023/04/15 11:00:11;;;;;;;4.72;1.90;;;;;;;8.34;100.00;101266.13;10153722;29;20025;-89
2023/04/15 11:05:15;;;;;;;5.63;2.17;;;;;;;8.45;100.00;101314.75;10169745;29;20028;-89
2023/04/15 11:10:25;;;;;;;7.32;2.45;;;;;;;8.88;100.00;101391.50;10195740;29;20434;-89
2023/04/15 11:15:36;;;;;;;6.63;2.40;;;;;;;8.85;100.00;101402.13;10191239;29;20056;-90
2023/04/15 11:20:37;;;;;;;9.35;2.88;;;;;;;8.83;100.00;101407.00;10149673;29;20408;-89
2023/04/15 11:25:38;;;;;;;11.60;2.58;;;;;;;8.55;100.00;101347.97;10114675;29;20036;-88
2023/04/15 11:30:39;;;;;;;7.97;1.98;;;;;;;8.09;100.00;101288.97;10128907;29;20127;-90
2023/04/15 11:35:42;;;;;;;8.18;2.47;;;;;;;8.24;100.00;101319.59;10114522;29;20500;-90
2023/04/15 11:40:43;;;;;;;11.13;1.83;;;;;;;8.60;100.00;101394.81;10130978;29;20036;-91
2023/04/15 11:45:58;;;;;;;5.13;1.90;;;;;;;8.26;100.00;101350.38;10149715;29;20058;-92
2023/04/15 11:51:20;;;;;;;12.27;2.72;;;;;;;8.50;100.00;101364.31;10188293;28;20038;-94
2023/04/15 11:56:28;;;;;;;10.30;2.45;;;;;;;8.39;100.00;101345.81;10113702;29;20047;-93
2023/04/15 12:01:38;;;;;;;8.77;1.90;;;;;;;7.94;100.00;101325.00;10121586;29;20488;-92
2023/04/15 12:06:38;;;;;;;12.75;3.58;;;;;;;7.25;100.00;101239.16;10196491;29;20063;-92
2023/04/15 12:11:44;;;;;;;10.38;2.15;;;;;;;7.57;100.00;101296.66;10168534;28;20138;-95
2023/04/15 12:16:47;;;;;;;10.25;2.58;;;;;;;8.41;100.00;101483.66;10161639;28;20059;-94
2023/04/15 12:22:09;;;;;;;6.95;2.10;;;;;;;7.74;100.00;101385.47;10198397;29;20027;-93
2023/04/15 12:27:10;;;;;;;8.30;2.35;;;;;;;7.03;100.00;101257.91;10157683;28;20052;-96
2023/04/15 12:32:12;;;;;;;9.40;2.50;;;;;;;7.02;100.00;101231.56;10199652;28;20396;-95
2023/04/15 12:37:13;;;;;;;7.43;2.13;;;;;;;7.12;100.00;101258.44;10204328;28;20050;-96
2023/04/15 12:42:28;;;;;;;6.10;3.15;;;;;;;6.94;100.00;101268.25;10147014;28;20126;-95
2023/04/15 12:47:41;;;;;;;9.40;2.20;;;;;;;8.32;100.00;101548.91;10043698;29;20044;-96
2023/04/15 13:19:20;;;;;;;10.00;1.98;;;;;;;8.16;100.00;101520.09;9960162;29;20045;-96
2023/04/15 13:30:57;;;;;;;8.80;2.83;;;;;;;8.10;100.00;101510.03;10165427;23;20102;-72
2023/04/15 13:35:58;;;;;;;8.00;2.78;;;;;;;8.09;100.00;101522.06;10294061;28;20126;-72
2023/04/15 13:40:59;;;;;;;11.15;2.63;;;;;;;8.09;100.00;101520.16;10276105;28;20514;-72
2023/04/15 13:46:00;;;;;;;9.98;2.75;;;;;;;8.03;100.00;101525.69;10292742;28;20039;-72
2023/04/15 13:51:00;;;;;;;11.75;3.05;;;;;;;8.06;100.00;101536.22;10254834;28;20058;-71
2023/04/15 13:56:01;;;;;;;10.60;2.40;;;;;;;8.03;100.00;101531.19;10310478;28;20038;-73
2023/04/15 14:01:02;;;;;;;14.13;3.60;;;;;;;7.97;100.00;101537.56;10292894;28;20066;-69
2023/04/15 14:06:02;;;;;;;11.35;3.17;;;;;;;8.02;100.00;101551.44;10302409;28;20059;-70
2023/04/15 14:11:02;;;;;;;14.15;3.50;;;;;;;7.98;100.00;101551.06;10261344;28;20038;-70
2023/04/15 14:16:03;;;;;;;25.88;5.18;;;;;;;7.96;100.00;101549.56;10239350;28;20106;-70
2023/04/15 14:21:05;;;;;;;11.27;3.63;;;;;;;7.91;100.00;101563.94;10274179;28;20035;-71
2023/04/15 14:26:05;;;;;;;16.90;4.60;;;;;;;7.92;100.00;101565.63;10259269;28;20042;-71
2023/04/15 14:31:06;;;;;;;13.95;3.90;;;;;;;7.89;100.00;101561.41;10263787;28;20491;-69
2023/04/15 14:36:08;;;;;;;14.43;4.90;;;;;;;7.85;100.00;101557.47;10291143;28;20110;-70
2023/04/15 14:41:08;;;;;;;17.17;4.32;;;;;;;7.81;100.00;101569.06;10234916;28;20090;-72
2023/04/15 14:46:09;;;;;;;14.95;4.05;;;;;;;7.73;100.00;101561.94;10257912;28;20051;-70
2023/04/15 14:51:10;;;;;;;15.70;5.50;;;;;;;7.78;100.00;101581.31;10240084;29;20039;-72
2023/04/15 14:56:11;;;;;;;21.90;6.35;;;;;;;7.51;100.00;101538.66;10246889;28;20031;-72
2023/04/15 15:01:11;;;;;;;12.00;4.65;;;;;;;7.86;100.00;101586.53;10259679;28;20047;-73
2023/04/15 15:06:12;;;;;;;19.63;5.35;;;;;;;7.87;100.00;101601.94;10273370;28;20042;-71
2023/04/15 15:11:12;;;;;;;22.75;7.15;;;;;;;7.89;100.00;101601.72;10279299;28;20047;-72
2023/04/15 15:16:13;;;;;;;14.60;5.40;;;;;;;7.95;100.00;101605.47;10256086;28;20402;-71
2023/04/15 15:21:14;;;;;;;18.45;5.03;;;;;;;7.92;100.00;101617.72;10294973;28;20101;-71
2023/04/15 15:26:14;;;;;;;15.05;4.90;;;;;;;7.92;100.00;101619.59;10294735;28;20070;-69
2023/04/15 15:31:15;;;;;;;19.45;6.05;;;;;;;7.88;100.00;101630.19;10280446;28;20039;-70
2023/04/15 15:36:15;;;;;;;18.00;6.10;;;;;;;7.79;100.00;101629.59;10296485;28;20031;-69
2023/04/15 15:41:16;;;;;;;24.15;7.25;;;;;;;7.82;100.00;101640.13;10246770;28;20078;-71
2023/04/15 15:46:16;;;;;;;22.17;7.60;;;;;;;7.85;100.00;101639.72;10294073;28;20050;-71
2023/04/15 15:51:17;;;;;;;32.70;8.60;;;;;;;7.84;100.00;101642.66;10277328;28;20046;-68
2023/04/15 15:56:17;;;;;;;18.35;7.78;;;;;;;7.81;100.00;101646.69;10294378;28;20039;-68
2023/04/15 16:01:18;;;;;;;27.60;8.38;;;;;;;7.71;100.00;101645.44;10276695;28;20047;-71
2023/04/15 16:06:18;;;;;;;22.00;8.40;;;;;;;7.78;100.00;101663.53;10278580;28;20031;-70
2023/04/15 16:11:19;;;;;;;25.77;9.55;;;;;;;7.79;100.00;101662.50;10277105;28;20043;-71
2023/04/15 16:16:19;;;;;;;28.90;11.93;;;;;;;7.81;100.00;101678.72;10275547;28;20039;-72
2023/04/15 16:21:20;;;;;;;33.35;9.50;;;;;;;7.83;100.00;101680.19;10276457;28;20035;-71
2023/04/15 16:26:20;;;;;;;39.03;12.75;;;;;;;7.76;100.00;101684.84;10292777;28;20070;-71
2023/04/15 16:31:21;;;;;;;36.40;11.98;;;;;;;7.02;100.00;101563.66;10292794;28;20043;-71
2023/04/15 16:36:21;;;;;;;41.95;13.50;;;;;;;7.79;100.00;101695.41;10294344;28;20030;-71
2023/04/15 16:41:22;;;;;;;41.20;13.02;;;;;;;7.79;100.00;101700.00;10280307;28;20035;-69
2023/04/15 16:46:22;;;;;;;29.98;12.30;;;;;;;7.78;100.00;101710.16;10292160;28;20049;-70
2023/04/15 16:51:23;;;;;;;33.20;13.32;;;;;;;7.77;100.00;101713.97;10306527;28;20058;-71
2023/04/15 16:56:23;;;;;;;43.78;12.55;;;;;;;7.76;100.00;101714.16;10274560;28;20090;-71
2023/04/15 17:01:24;;;;;;;54.45;16.52;;;;;;;7.74;100.00;101710.78;10285204;28;20050;-69
2023/04/15 17:06:25;;;;;;;48.13;15.68;;;;;;;7.75;100.00;101713.34;10298729;28;20047;-69
2023/04/15 17:11:26;;;;;;;57.63;17.70;;;;;;;7.73;100.00;101733.78;10272375;28;20043;-69
2023/04/15 17:16:28;;;;;;;45.92;17.50;;;;;;;7.79;100.00;101732.91;10285714;28;20456;-70
2023/04/15 17:21:30;;;;;;;60.40;19.27;;;;;;;7.77;100.00;101740.50;10287542;28;20039;-70
2023/04/15 17:26:31;;;;;;;44.47;17.65;;;;;;;7.74;100.00;101736.31;10262406;28;20049;-70
2023/04/15 17:31:31;;;;;;;58.47;19.98;;;;;;;7.75;100.00;101743.47;10295810;28;20031;-70
2023/04/15 17:36:32;;;;;;;62.35;21.15;;;;;;;7.78;100.00;101748.53;10282843;28;20046;-70
2023/04/15 17:41:33;;;;;;;55.17;20.63;;;;;;;7.38;100.00;101710.25;10297909;28;20065;-70
2023/04/15 17:46:33;;;;;;;62.80;19.38;;;;;;;7.76;100.00;101760.78;10310453;28;20066;-71
2023/04/15 17:51:34;;;;;;;54.65;20.52;;;;;;;7.74;100.00;101777.41;10258712;28;20413;-72
2023/04/15 17:56:34;;;;;;;47.78;17.83;;;;;;;7.73;100.00;101770.25;10277663;28;20030;-72
2023/04/15 18:01:36;;;;;;;65.10;20.92;;;;;;;7.68;100.00;101784.59;10286396;28;20555;-70
2023/04/15 18:06:37;;;;;;;43.17;17.63;;;;;;;7.60;100.00;101764.78;10282466;28;20058;-71
2023/04/15 18:11:42;;;;;;;63.15;21.17;;;;;;;7.18;100.00;101725.84;10261302;28;20038;-71
2023/04/15 18:16:43;;;;;;;62.85;18.70;;;;;;;7.68;100.00;101797.47;10291834;28;20043;-69
2023/04/15 18:21:44;;;;;;;60.72;19.80;;;;;;;7.67;100.00;101804.84;10285433;28;20465;-71
2023/04/15 18:26:45;;;;;;;61.90;23.20;;;;;;;7.71;100.00;101809.88;10283219;28;20075;-70
2023/04/15 18:31:47;;;;;;;70.20;21.67;;;;;;;7.71;100.00;101818.09;10199310;29;20099;-72
2023/04/15 18:36:47;;;;;;;63.40;22.08;;;;;;;7.71;100.00;101818.09;10216383;29;20051;-70
2023/04/15 18:41:48;;;;;;;60.90;21.45;;;;;;;7.75;100.00;101824.84;10211797;29;20038;-71
2023/04/15 18:46:48;;;;;;;71.55;24.00;;;;;;;7.77;100.00;101837.31;10216884;29;20031;-69
2023/04/15 18:51:50;;;;;;;59.53;23.17;;;;;;;7.69;100.00;101821.09;10206756;29;20039;-71
2023/04/15 18:56:50;;;;;;;62.08;21.95;;;;;;;7.75;100.00;101842.16;10203618;28;20728;-71
2023/04/15 19:01:51;;;;;;;69.28;22.02;;;;;;;7.68;100.00;101852.28;10196898;28;20074;-71
2023/04/15 19:06:51;;;;;;;67.60;23.85;;;;;;;7.80;100.00;101866.19;10215639;29;20099;-71
2023/04/15 19:11:52;;;;;;;69.38;23.55;;;;;;;7.81;100.00;101868.72;10214233;29;20047;-72
2023/04/15 19:16:52;;;;;;;76.05;23.08;;;;;;;7.80;100.00;101880.75;10215606;29;20043;-71
2023/04/15 19:21:53;;;;;;;66.82;22.75;;;;;;;7.81;100.00;101879.69;10227142;29;20044;-71
2023/04/15 19:26:53;;;;;;;71.43;24.77;;;;;;;7.85;100.00;101875.47;10166930;29;20036;-72
2023/04/15 19:31:54;;;;;;;80.75;26.08;;;;;;;7.87;100.00;101878.84;10246618;28;20055;-71
2023/04/15 19:36:55;;;;;;;88.32;29.08;;;;;;;7.86;100.00;101893.59;10269463;28;20043;-71
2023/04/15 19:41:57;;;;;;;75.72;29.48;;;;;;;7.83;100.00;101887.69;10217868;28;20054;-72
2023/04/15 19:46:59;;;;;;;81.88;33.13;;;;;;;7.81;100.00;101878.84;10204699;28;20107;-71
2023/04/15 19:52:01;;;;;;;89.75;34.60;;;;;;;7.96;100.00;101892.31;10184069;28;20254;-72
2023/04/15 19:57:03;;;;;;;92.30;32.70;;;;;;;8.00;100.00;101893.59;10254179;28;20105;-70
2023/04/15 20:02:03;;;;;;;97.95;34.15;;;;;;;7.97;100.00;101903.09;10234645;28;20070;-71
2023/04/15 20:07:04;;;;;;;86.90;29.30;;;;;;;8.02;100.00;101899.69;10250809;28;20035;-71
2023/04/15 20:12:04;;;;;;;101.55;32.90;;;;;;;8.02;100.00;101907.94;10216491;28;20043;-71
2023/04/15 20:17:05;;;;;;;92.88;33.38;;;;;;;8.02;100.00;101906.06;10253586;28;20132;-71
2023/04/15 20:22:05;;;;;;;88.18;31.23;;;;;;;7.97;100.00;101896.75;10250171;28;20113;-72
2023/04/15 20:27:06;;;;;;;95.40;35.50;;;;;;;8.04;100.00;101909.44;10233991;28;20051;-71
2023/04/15 20:32:10;;;;;;;101.18;39.58;;;;;;;8.04;100.00;101911.31;10254850;28;20043;-70
2023/04/15 20:37:11;;;;;;;96.10;38.25;;;;;;;8.06;100.00;101906.44;10251717;28;20039;-71
2023/04/15 20:42:11;;;;;;;104.75;37.17;;;;;;;8.08;100.00;101907.06;10236834;28;20511;-71
2023/04/15 20:47:12;;;;;;;99.63;37.63;;;;;;;8.07;100.00;101898.00;10253604;28;20034;-71
2023/04/15 20:52:13;;;;;;;93.85;36.03;;;;;;;8.15;100.00;101907.09;10255932;28;20110;-71
2023/04/15 20:57:13;;;;;;;91.78;35.92;;;;;;;8.04;100.00;101884.75;10252914;28;20039;-71
2023/04/15 21:02:14;;;;;;;79.65;33.80;;;;;;;8.16;100.00;101912.34;10268749;28;20043;-71
2023/04/15 21:07:15;;;;;;;90.78;34.83;;;;;;;8.12;100.00;101905.59;10250755;28;20443;-71
2023/04/15 21:12:15;;;;;;;99.25;34.33;;;;;;;8.15;100.00;101913.41;10240262;28;20040;-71
2023/04/15 21:17:15;;;;;;;88.78;32.40;;;;;;;8.08;100.00;101909.81;10250321;28;20035;-71
2023/04/15 21:22:16;;;;;;;96.57;36.28;;;;;;;8.04;100.00;101912.16;10234991;28;20039;-71
2023/04/15 21:27:16;;;;;;;91.25;37.00;;;;;;;8.12;100.00;101922.06;10240607;28;20546;-71
2023/04/15 21:32:17;;;;;;;89.45;34.28;;;;;;;8.10;100.00;101924.16;10285593;28;20038;-71
2023/04/15 21:37:17;;;;;;;85.80;36.25;;;;;;;8.06;100.00;101922.91;10259941;28;20047;-71
2023/04/15 21:42:18;;;;;;;77.78;31.20;;;;;;;8.06;100.00;101947.59;10250331;28;20036;-71
2023/04/15 21:47:18;;;;;;;79.63;33.03;;;;;;;8.05;100.00;101954.13;10248849;28;20046;-72
2023/04/15 21:52:19;;;;;;;91.10;33.45;;;;;;;8.08;100.00;101951.81;10250112;28;20031;-71
2023/04/15 21:57:19;;;;;;;89.93;34.70;;;;;;;8.03;100.00;101959.00;10262077;28;20043;-71
2023/04/15 22:02:20;;;;;;;82.05;33.97;;;;;;;7.98;100.00;101953.28;10247457;28;20058;-71
2023/04/15 22:07:20;;;;;;;80.38;31.80;;;;;;;7.87;100.00;101955.63;10289085;28;20042;-72
2023/04/15 22:12:21;;;;;;;84.75;35.13;;;;;;;7.83;100.00;101957.09;10263651;28;20031;-71
2023/04/15 22:17:21;;;;;;;83.82;34.88;;;;;;;7.85;100.00;101974.19;10298199;28;20491;-71
2023/04/15 22:22:22;;;;;;;76.28;32.58;;;;;;;7.81;100.00;101977.53;10250132;28;20434;-71
2023/04/15 22:27:22;;;;;;;81.50;33.55;;;;;;;7.68;100.00;101973.72;10297729;28;20035;-71
2023/04/15 22:32:23;;;;;;;79.13;33.45;;;;;;;7.55;100.00;101970.13;10262569;28;20130;-71
2023/04/15 22:37:23;;;;;;;83.25;34.80;;;;;;;7.44;100.00;101975.16;10294310;28;20141;-71
2023/04/15 22:42:24;;;;;;;70.68;35.15;;;;;;;7.27;100.00;101971.06;10261182;28;20049;-71
2023/04/15 22:47:25;;;;;;;87.15;37.38;;;;;;;7.24;100.00;101990.69;10259796;28;20037;-70
2023/04/15 22:52:25;;;;;;;80.38;36.10;;;;;;;7.17;100.00;101998.00;10293214;28;20035;-71
2023/04/15 22:57:27;;;;;;;86.18;36.63;;;;;;;7.10;100.00;102010.84;10300228;28;20098;-71
2023/04/15 23:02:27;;;;;;;82.80;38.90;;;;;;;7.00;100.00;102020.25;10277114;28;20465;-71
2023/04/15 23:07:28;;;;;;;82.03;36.45;;;;;;;6.94;100.00;102020.22;10288744;28;20046;-71
2023/04/15 23:12:28;;;;;;;100.93;40.75;;;;;;;6.89;100.00;102018.09;10293004;28;20046;-71
2023/04/15 23:17:28;;;;;;;95.60;40.88;;;;;;;6.82;100.00;102022.69;10280397;28;20034;-71